Time;durP1;ratioP1;P1;durP2;ratioP2;P2;SDS_P1;SDS_P2;PMS_P1;PMS_P2;Temp;Humidity;BMP_temperature;BMP_pressure;BME280_temperature;BME280_humidity;BME280_pressure;Samples;Min_cycle;Max_cycle;Signal;HPM_P1;HPM_P2
2022/03/02 00:02:10;;;;;;;6.28;4.30;;;20.90;48.30;;;;;;5041113;28;20506;-72
2022/03/02 00:04:36;;;;;;;4.28;3.63;;;20.90;48.30;;;;;;5039510;28;20550;-72
2022/03/02 00:07:01;;;;;;;5.50;4.03;;;20.90;48.30;;;;;;5038696;28;20087;-72
2022/03/02 00:09:29;;;;;;;6.38;4.30;;;20.90;48.30;;;;;;5043948;28;20070;-72
2022/03/02 00:11:54;;;;;;;7.18;4.43;;;20.80;48.30;;;;;;5042190;28;20455;-72
2022/03/02 00:14:20;;;;;;;5.68;4.20;;;20.80;48.20;;;;;;5027452;28;20053;-72
2022/03/02 00:16:45;;;;;;;5.32;4.20;;;20.80;48.20;;;;;;5041665;28;20056;-72
2022/03/02 00:19:11;;;;;;;5.00;4.00;;;20.90;48.20;;;;;;5044431;28;20041;-72
2022/03/02 00:21:36;;;;;;;5.38;4.05;;;20.80;48.10;;;;;;5043178;28;20048;-72
2022/03/02 00:24:04;;;;;;;6.30;4.18;;;20.80;48.10;;;;;;5046850;28;20052;-72
2022/03/02 00:26:30;;;;;;;5.93;4.38;;;20.80;48.10;;;;;;5047138;28;20159;-72
2022/03/02 00:28:56;;;;;;;5.35;3.90;;;20.90;48.10;;;;;;5046914;28;20055;-72
2022/03/02 00:31:22;;;;;;;6.00;4.20;;;20.80;48.10;;;;;;5047413;28;20045;-72
2022/03/02 00:33:47;;;;;;;5.47;4.10;;;20.80;48.10;;;;;;5030136;28;20049;-71
2022/03/02 00:36:13;;;;;;;4.68;3.70;;;20.80;48.00;;;;;;5046995;28;20508;-72
2022/03/02 00:38:38;;;;;;;5.15;4.00;;;20.80;48.00;;;;;;5047259;28;20057;-73
2022/03/02 00:41:05;;;;;;;6.53;4.22;;;20.80;48.00;;;;;;5045970;28;20037;-72
2022/03/02 00:43:30;;;;;;;5.53;4.38;;;20.80;48.00;;;;;;5047706;28;20102;-72
2022/03/02 00:45:56;;;;;;;6.05;4.05;;;20.80;48.00;;;;;;5029052;28;20110;-73
2022/03/02 00:48:23;;;;;;;4.68;3.75;;;20.80;48.00;;;;;;5045566;28;20432;-72
2022/03/02 00:50:49;;;;;;;5.63;4.10;;;20.80;47.90;;;;;;5045506;28;20052;-72
2022/03/02 00:53:15;;;;;;;4.82;3.67;;;20.80;47.90;;;;;;5031643;28;20041;-74
2022/03/02 00:55:40;;;;;;;5.47;4.07;;;20.80;47.90;;;;;;5046909;28;20098;-72
2022/03/02 00:58:06;;;;;;;5.35;4.40;;;20.80;47.90;;;;;;5045715;28;20045;-72
2022/03/02 01:00:32;;;;;;;5.97;4.10;;;20.80;47.80;;;;;;5030480;28;20116;-73
2022/03/02 01:02:58;;;;;;;5.32;4.13;;;20.80;47.80;;;;;;5043928;28;20118;-75
2022/03/02 01:05:24;;;;;;;6.75;4.57;;;20.80;47.80;;;;;;5046556;28;20049;-75
2022/03/02 01:07:50;;;;;;;4.82;3.72;;;20.80;47.80;;;;;;5045699;28;20043;-74
2022/03/02 01:10:16;;;;;;;6.47;4.30;;;20.80;47.90;;;;;;5046344;28;20043;-75
2022/03/02 01:12:42;;;;;;;5.15;4.40;;;20.80;47.80;;;;;;5045066;28;20037;-74
2022/03/02 01:15:10;;;;;;;5.70;4.40;;;20.80;47.80;;;;;;5030211;28;20041;-73
2022/03/02 01:17:35;;;;;;;5.32;4.13;;;20.80;47.80;;;;;;5044666;28;20047;-73
2022/03/02 01:20:02;;;;;;;4.47;3.72;;;20.80;47.80;;;;;;5042757;28;20044;-74
2022/03/02 01:22:28;;;;;;;5.47;4.32;;;20.80;47.90;;;;;;5046163;28;20041;-74
2022/03/02 01:24:55;;;;;;;4.68;3.92;;;20.80;47.90;;;;;;5044581;28;20091;-75
2022/03/02 01:27:21;;;;;;;5.03;3.88;;;20.80;48.10;;;;;;5045778;28;20041;-74
2022/03/02 01:29:47;;;;;;;4.82;3.95;;;20.90;48.10;;;;;;5044821;28;20511;-74
2022/03/02 01:32:13;;;;;;;5.40;4.18;;;20.80;48.10;;;;;;5042186;28;20037;-75
2022/03/02 01:34:39;;;;;;;6.35;4.38;;;20.90;48.10;;;;;;5044686;28;20033;-73
2022/03/02 01:37:04;;;;;;;4.95;4.13;;;20.90;48.00;;;;;;5047021;28;20119;-74
2022/03/02 01:39:30;;;;;;;6.10;4.38;;;20.90;48.00;;;;;;5046936;28;20143;-74
2022/03/02 01:41:56;;;;;;;6.45;4.22;;;20.90;48.00;;;;;;5044079;28;20047;-75
2022/03/02 01:44:22;;;;;;;5.68;4.30;;;20.90;47.90;;;;;;5047264;28;20059;-75
2022/03/02 01:46:48;;;;;;;6.88;4.03;;;20.80;48.00;;;;;;5044870;28;20041;-72
2022/03/02 01:49:14;;;;;;;6.55;4.30;;;20.90;47.90;;;;;;5043583;28;20047;-74
2022/03/02 01:51:39;;;;;;;5.07;4.03;;;20.90;48.00;;;;;;5044735;28;20036;-73
2022/03/02 01:54:06;;;;;;;4.50;3.85;;;20.90;47.90;;;;;;5044929;28;20056;-72
2022/03/02 01:56:34;;;;;;;5.70;4.35;;;20.90;47.90;;;;;;5044634;28;20087;-73
2022/03/02 01:58:59;;;;;;;4.50;3.83;;;20.90;47.90;;;;;;5027301;28;20127;-73
2022/03/02 02:01:26;;;;;;;5.35;3.88;;;20.90;47.80;;;;;;5045671;28;20192;-74
2022/03/02 02:03:52;;;;;;;5.45;4.10;;;20.90;47.80;;;;;;5045664;28;20102;-73
2022/03/02 02:06:17;;;;;;;4.70;3.90;;;20.90;47.80;;;;;;5044571;28;20048;-73
2022/03/02 02:08:43;;;;;;;4.63;3.83;;;20.90;47.80;;;;;;5045568;28;20112;-72
2022/03/02 02:11:11;;;;;;;5.32;4.00;;;20.90;47.80;;;;;;5026939;28;20048;-72
2022/03/02 02:13:38;;;;;;;4.88;4.07;;;20.90;47.80;;;;;;5045480;28;20420;-73
2022/03/02 02:16:05;;;;;;;4.78;3.92;;;20.90;47.80;;;;;;5045238;28;20036;-73
2022/03/02 02:18:32;;;;;;;6.22;4.30;;;20.90;47.80;;;;;;5043972;28;20420;-73
2022/03/02 02:21:05;;;;;;;5.10;4.00;;;20.90;47.80;;;;;;5044706;28;20044;-72
2022/03/02 02:23:31;;;;;;;5.72;4.10;;;20.90;47.70;;;;;;5043938;28;20036;-73
2022/03/02 02:25:56;;;;;;;4.30;3.67;;;20.90;47.70;;;;;;5041615;28;20397;-73
2022/03/02 02:28:24;;;;;;;4.70;3.95;;;20.90;47.60;;;;;;5044288;28;20147;-74
2022/03/02 02:30:53;;;;;;;5.22;4.00;;;20.90;47.60;;;;;;5044304;28;20466;-73
2022/03/02 02:33:19;;;;;;;5.20;4.25;;;20.90;47.60;;;;;;5042426;28;20041;-73
2022/03/02 02:35:45;;;;;;;5.72;4.07;;;20.90;47.60;;;;;;5045368;28;20320;-74
2022/03/02 02:38:11;;;;;;;5.75;4.13;;;20.90;47.60;;;;;;5045357;28;20032;-73
2022/03/02 02:40:37;;;;;;;5.03;4.32;;;20.90;47.60;;;;;;5045720;28;20059;-74
2022/03/02 02:43:05;;;;;;;5.20;4.18;;;20.80;47.50;;;;;;5043500;28;20124;-74
2022/03/02 02:45:31;;;;;;;4.97;3.70;;;20.90;47.60;;;;;;5043625;28;20091;-74
2022/03/02 02:47:58;;;;;;;5.05;4.00;;;20.90;47.60;;;;;;5041434;28;20087;-72
2022/03/02 02:50:32;;;;;;;5.57;4.20;;;20.80;47.50;;;;;;5027252;28;20460;-74
2022/03/02 02:53:00;;;;;;;5.30;4.10;;;20.90;47.60;;;;;;5044841;28;20041;-72
2022/03/02 02:55:28;;;;;;;5.25;4.22;;;20.80;47.50;;;;;;5026570;28;20045;-74
2022/03/02 02:57:55;;;;;;;6.50;3.90;;;20.80;47.50;;;;;;5044280;28;20129;-72
2022/03/02 03:00:24;;;;;;;4.72;3.95;;;20.80;47.50;;;;;;5043059;28;20493;-73
2022/03/02 03:02:52;;;;;;;7.22;4.63;;;20.80;47.50;;;;;;5045551;28;20063;-73
2022/03/02 03:05:20;;;;;;;5.32;4.25;;;20.80;47.40;;;;;;5044221;28;20425;-73
2022/03/02 03:07:47;;;;;;;;;;;20.80;47.40;;;;;;5041490;28;20102;-73
2022/03/02 03:10:13;;;;;;;5.55;4.05;;;20.80;47.40;;;;;;5043326;28;20050;-73
2022/03/02 03:12:39;;;;;;;5.75;4.20;;;20.80;47.40;;;;;;5042743;28;20064;-72
2022/03/02 03:15:09;;;;;;;4.55;3.75;;;20.90;47.40;;;;;;5044729;28;20040;-73
2022/03/02 03:17:35;;;;;;;5.53;4.15;;;20.80;47.30;;;;;;5041966;28;20492;-74
2022/03/02 03:20:01;;;;;;;5.03;4.00;;;20.80;47.30;;;;;;5045933;28;20137;-74
2022/03/02 03:22:26;;;;;;;5.80;4.07;;;20.80;47.30;;;;;;5042945;28;20715;-73
2022/03/02 03:24:52;;;;;;;5.22;4.15;;;20.80;47.30;;;;;;5044608;28;20048;-73
2022/03/02 03:27:18;;;;;;;5.57;3.97;;;20.80;47.30;;;;;;5042805;28;20073;-73
2022/03/02 03:29:43;;;;;;;7.20;4.60;;;20.80;47.40;;;;;;5043404;28;20083;-73
2022/03/02 03:32:09;;;;;;;5.18;4.07;;;20.80;47.30;;;;;;5044149;28;20052;-73
2022/03/02 03:34:35;;;;;;;5.10;4.10;;;20.70;47.30;;;;;;5043375;28;20045;-73
2022/03/02 03:37:00;;;;;;;5.60;4.10;;;20.80;47.30;;;;;;5044595;28;20536;-74
2022/03/02 03:39:26;;;;;;;5.30;4.28;;;20.80;47.30;;;;;;5044128;28;20040;-72
2022/03/02 03:41:52;;;;;;;5.05;4.00;;;20.80;47.40;;;;;;5044622;28;20052;-73
2022/03/02 03:44:18;;;;;;;4.85;3.72;;;20.80;47.30;;;;;;5043633;28;20056;-72
2022/03/02 03:46:43;;;;;;;6.13;4.05;;;20.80;47.30;;;;;;5044861;28;20056;-73
2022/03/02 03:49:09;;;;;;;5.50;4.25;;;20.70;47.30;;;;;;5042012;28;20045;-72
2022/03/02 03:51:35;;;;;;;5.22;4.18;;;20.70;47.20;;;;;;5039929;28;20440;-73
2022/03/02 03:54:01;;;;;;;4.68;3.92;;;20.80;47.30;;;;;;5044011;28;20051;-74
2022/03/02 03:56:28;;;;;;;6.88;4.53;;;20.80;47.20;;;;;;5043842;28;20527;-73
2022/03/02 03:58:54;;;;;;;5.13;4.15;;;20.70;47.20;;;;;;5048282;28;20625;-73
2022/03/02 04:01:21;;;;;;;5.28;4.25;;;20.80;47.20;;;;;;5047825;28;20055;-74
2022/03/02 04:03:47;;;;;;;6.50;4.30;;;20.80;47.20;;;;;;5041971;28;20504;-73
2022/03/02 04:06:13;;;;;;;5.43;4.22;;;20.70;47.20;;;;;;5031230;28;20048;-74
2022/03/02 04:08:38;;;;;;;5.93;4.35;;;20.70;47.10;;;;;;5046670;28;20052;-73
2022/03/02 04:11:04;;;;;;;4.75;3.75;;;20.70;47.10;;;;;;5047921;28;20056;-73
2022/03/02 04:13:29;;;;;;;5.82;4.05;;;20.70;47.20;;;;;;5046627;28;20586;-73
2022/03/02 04:15:55;;;;;;;6.07;3.97;;;20.70;47.20;;;;;;5049624;28;20044;-72
2022/03/02 04:18:21;;;;;;;5.55;4.13;;;20.70;47.10;;;;;;5030149;28;20119;-73
2022/03/02 04:20:46;;;;;;;4.68;3.60;;;20.70;47.10;;;;;;5045864;28;20572;-73
2022/03/02 04:23:12;;;;;;;5.53;4.18;;;20.70;47.10;;;;;;5044762;28;20045;-73
2022/03/02 04:25:39;;;;;;;5.10;4.25;;;20.70;47.10;;;;;;5047320;28;20048;-73
2022/03/02 04:28:04;;;;;;;5.40;4.15;;;20.70;47.10;;;;;;5047285;28;20444;-73
2022/03/02 04:30:30;;;;;;;4.82;3.90;;;20.70;47.10;;;;;;5045580;28;20040;-74
2022/03/02 04:32:58;;;;;;;5.07;3.70;;;20.70;47.10;;;;;;5048861;28;20087;-73
2022/03/02 04:35:24;;;;;;;6.22;4.25;;;20.70;47.00;;;;;;5045086;28;20104;-73
2022/03/02 04:37:49;;;;;;;5.45;4.10;;;20.70;47.00;;;;;;5042601;28;20101;-73
2022/03/02 04:40:16;;;;;;;5.03;3.92;;;20.70;47.00;;;;;;5028794;28;20045;-72
2022/03/02 04:42:42;;;;;;;7.00;4.55;;;20.70;47.00;;;;;;5048139;28;20041;-74
2022/03/02 04:45:08;;;;;;;4.53;3.70;;;20.70;47.00;;;;;;5046397;28;20057;-73
2022/03/02 04:47:34;;;;;;;5.57;4.00;;;20.70;47.00;;;;;;5045839;28;20047;-73
2022/03/02 04:50:00;;;;;;;5.28;4.10;;;20.70;47.00;;;;;;5046888;28;20067;-74
2022/03/02 04:52:25;;;;;;;4.80;4.00;;;20.70;47.00;;;;;;5042571;28;20037;-73
2022/03/02 04:55:06;;;;;;;4.78;3.70;;;20.70;47.00;;;;;;5048143;28;20111;-73
2022/03/02 04:57:44;;;;;;;5.43;4.20;;;20.70;46.90;;;;;;5046225;28;20375;-73
2022/03/02 05:00:18;;;;;;;;;;;20.70;46.90;;;;;;5042991;28;20057;-72
2022/03/02 05:02:44;;;;;;;4.68;4.10;;;20.70;46.90;;;;;;5047097;28;19931;-73
2022/03/02 05:05:12;;;;;;;5.05;3.90;;;20.70;46.90;;;;;;5045232;28;20040;-73
2022/03/02 05:07:39;;;;;;;5.38;3.85;;;20.70;46.90;;;;;;5047501;28;20599;-73
2022/03/02 05:10:06;;;;;;;5.15;4.10;;;20.70;46.90;;;;;;5044494;28;20033;-74
2022/03/02 05:12:31;;;;;;;5.43;4.10;;;20.70;46.80;;;;;;5046429;28;20059;-73
2022/03/02 05:14:57;;;;;;;5.50;4.18;;;20.70;46.80;;;;;;5045527;28;20135;-73
2022/03/02 05:17:23;;;;;;;5.97;4.18;;;20.70;46.80;;;;;;5046992;28;20041;-72
2022/03/02 05:19:49;;;;;;;5.43;4.05;;;20.70;46.80;;;;;;5045705;28;20037;-73
2022/03/02 05:22:15;;;;;;;5.03;3.95;;;20.70;46.80;;;;;;5045699;28;20051;-73
2022/03/02 05:24:42;;;;;;;5.10;3.85;;;20.60;46.70;;;;;;5046831;28;20045;-72
2022/03/02 05:27:08;;;;;;;5.13;4.13;;;20.70;46.70;;;;;;5044905;28;20072;-72
2022/03/02 05:29:35;;;;;;;6.03;4.20;;;20.70;46.70;;;;;;5045378;28;20044;-73
2022/03/02 05:32:01;;;;;;;5.72;3.95;;;20.70;46.70;;;;;;5046530;28;20056;-73
2022/03/02 05:34:26;;;;;;;5.38;3.97;;;20.70;46.70;;;;;;5046227;28;20782;-73
2022/03/02 05:36:52;;;;;;;4.78;3.95;;;20.60;46.70;;;;;;5045589;28;20625;-73
2022/03/02 05:39:18;;;;;;;7.10;4.32;;;20.70;46.70;;;;;;5046211;28;20508;-73
2022/03/02 05:41:43;;;;;;;5.53;3.80;;;20.70;47.50;;;;;;5046476;28;20048;-73
2022/03/02 05:44:09;;;;;;;6.10;3.92;;;20.70;46.70;;;;;;5045642;28;20044;-74
2022/03/02 05:46:35;;;;;;;5.75;4.15;;;20.60;46.70;;;;;;5046149;28;20504;-74
2022/03/02 05:49:03;;;;;;;5.38;4.03;;;20.60;46.60;;;;;;5043985;28;20045;-72
2022/03/02 05:51:30;;;;;;;4.85;3.90;;;20.60;46.60;;;;;;5045233;28;20056;-74
2022/03/02 05:53:56;;;;;;;6.18;4.05;;;20.60;46.60;;;;;;5046227;28;20091;-73
2022/03/02 05:56:23;;;;;;;5.88;4.22;;;20.60;46.60;;;;;;5045424;28;20500;-73
2022/03/02 05:58:48;;;;;;;5.40;4.20;;;20.60;46.50;;;;;;5045144;28;20492;-73
2022/03/02 06:01:14;;;;;;;5.15;4.03;;;20.60;46.60;;;;;;5043990;28;20087;-74
2022/03/02 06:03:40;;;;;;;4.60;4.05;;;20.60;46.50;;;;;;5028652;28;20436;-73
2022/03/02 06:06:05;;;;;;;5.35;3.90;;;20.60;46.50;;;;;;5043583;28;20432;-74
2022/03/02 06:08:31;;;;;;;4.50;3.75;;;20.60;46.50;;;;;;5045812;28;20606;-74
2022/03/02 06:10:57;;;;;;;5.45;4.03;;;20.60;46.50;;;;;;5044354;28;20087;-74
2022/03/02 06:13:23;;;;;;;5.18;3.85;;;20.60;46.60;;;;;;5027164;28;20083;-73
2022/03/02 06:15:49;;;;;;;9.93;4.25;;;20.60;46.60;;;;;;5046292;28;20124;-73
2022/03/02 06:18:14;;;;;;;4.63;3.38;;;20.60;46.60;;;;;;5044554;28;20131;-76
2022/03/02 06:20:43;;;;;;;6.53;3.80;;;20.60;46.50;;;;;;5026013;28;20049;-72
2022/03/02 06:23:10;;;;;;;5.72;3.95;;;20.60;46.50;;;;;;5043174;28;20378;-75
2022/03/02 06:25:35;;;;;;;5.18;3.75;;;20.70;46.60;;;;;;5039185;28;20512;-75
2022/03/02 06:28:01;;;;;;;5.10;3.97;;;20.70;46.60;;;;;;5044346;28;20045;-73
2022/03/02 06:30:27;;;;;;;5.07;3.95;;;20.70;46.60;;;;;;5044383;28;20170;-74
2022/03/02 06:32:53;;;;;;;4.35;3.60;;;20.70;46.70;;;;;;5045332;28;20055;-72
2022/03/02 06:35:18;;;;;;;4.95;3.88;;;20.70;46.70;;;;;;5027502;28;20041;-73
2022/03/02 06:37:46;;;;;;;4.93;3.75;;;20.70;46.60;;;;;;5044195;28;20412;-73
2022/03/02 06:40:13;;;;;;;6.30;4.00;;;20.70;46.70;;;;;;5045010;28;20037;-72
2022/03/02 06:43:02;;;;;;;4.35;3.85;;;20.70;46.70;;;;;;5044889;28;20095;-73
2022/03/02 06:45:52;;;;;;;4.78;3.58;;;20.70;46.70;;;;;;5043307;28;20124;-72
2022/03/02 06:48:20;;;;;;;5.72;3.70;;;20.70;46.70;;;;;;5043725;28;20037;-72
2022/03/02 06:50:52;;;;;;;5.05;3.78;;;20.70;46.70;;;;;;5044764;28;20434;-73
2022/03/02 06:53:19;;;;;;;6.85;4.20;;;20.70;46.70;;;;;;5043648;28;20573;-73
2022/03/02 06:55:45;;;;;;;5.10;3.75;;;20.70;46.80;;;;;;5045668;28;20049;-74
2022/03/02 06:58:12;;;;;;;6.78;4.00;;;20.70;46.80;;;;;;5043315;28;20103;-75
2022/03/02 07:00:38;;;;;;;10.60;4.30;;;20.70;46.90;;;;;;5044524;28;20060;-74
2022/03/02 07:03:11;;;;;;;6.57;4.72;;;20.70;47.00;;;;;;5045172;28;20420;-74
2022/03/02 07:05:39;;;;;;;6.85;4.35;;;20.70;47.00;;;;;;5042534;28;20040;-75
2022/03/02 07:08:06;;;;;;;7.70;3.90;;;20.70;47.10;;;;;;5043034;28;20037;-71
2022/03/02 07:10:33;;;;;;;9.57;4.43;;;20.60;47.10;;;;;;5041135;28;20037;-72
2022/03/02 07:13:01;;;;;;;11.98;4.20;;;20.70;47.20;;;;;;5042143;28;20041;-73
2022/03/02 07:15:28;;;;;;;7.82;4.68;;;20.70;47.10;;;;;;5042062;28;20492;-74
2022/03/02 07:17:54;;;;;;;5.78;4.35;;;20.70;47.00;;;;;;5043236;28;21427;-72
2022/03/02 07:20:20;;;;;;;7.13;4.55;;;20.70;46.90;;;;;;5042460;28;20029;-72
2022/03/02 07:22:52;;;;;;;6.15;4.53;;;20.70;46.90;;;;;;5024952;28;20123;-74
2022/03/02 07:25:33;;;;;;;10.63;4.72;;;20.70;46.90;;;;;;5042277;28;20045;-74
2022/03/02 07:27:59;;;;;;;10.48;4.38;;;20.70;46.80;;;;;;5040838;28;20091;-74
2022/03/02 07:30:27;;;;;;;7.65;4.30;;;20.70;46.80;;;;;;5042774;28;20055;-75
2022/03/02 07:32:56;;;;;;;6.55;4.80;;;20.80;46.90;;;;;;5042427;28;20567;-74
2022/03/02 07:35:23;;;;;;;6.82;4.38;;;20.80;46.80;;;;;;5042256;28;20045;-72
2022/03/02 07:37:49;;;;;;;8.45;4.43;;;20.90;46.80;;;;;;5041932;28;20037;-73
2022/03/02 07:40:15;;;;;;;7.00;4.30;;;20.90;46.80;;;;;;5025576;28;20033;-74
2022/03/02 07:42:41;;;;;;;6.72;4.53;;;20.90;46.80;;;;;;5043178;28;20041;-73
2022/03/02 07:45:08;;;;;;;5.53;4.70;;;21.00;46.80;;;;;;5040199;28;20052;-75
2022/03/02 07:47:34;;;;;;;6.75;4.18;;;21.00;46.80;;;;;;5044580;28;20048;-75
2022/03/02 07:49:59;;;;;;;7.53;4.47;;;21.00;46.70;;;;;;5041439;28;20515;-74
2022/03/02 07:52:28;;;;;;;5.65;4.20;;;21.10;46.70;;;;;;5042235;28;20624;-74
2022/03/02 07:54:59;;;;;;;7.30;4.40;;;21.10;46.70;;;;;;5041844;28;20124;-74
2022/03/02 07:57:28;;;;;;;6.07;4.22;;;21.10;46.60;;;;;;5042565;28;20048;-73
2022/03/02 07:59:57;;;;;;;6.22;4.28;;;21.10;46.70;;;;;;5041399;28;20037;-74
2022/03/02 08:02:24;;;;;;;6.72;4.60;;;21.20;46.80;;;;;;5041563;28;20071;-73
2022/03/02 08:04:52;;;;;;;6.30;4.32;;;21.20;46.80;;;;;;5026360;28;20062;-73
2022/03/02 08:07:17;;;;;;;6.63;4.60;;;21.20;46.90;;;;;;5040250;28;20722;-73
2022/03/02 08:09:44;;;;;;;6.07;4.40;;;21.30;47.00;;;;;;5042448;28;20055;-74
2022/03/02 08:12:11;;;;;;;7.93;4.70;;;21.30;47.10;;;;;;5041789;28;20051;-74
2022/03/02 08:14:36;;;;;;;8.75;4.70;;;21.30;47.10;;;;;;5044566;28;20428;-73
2022/03/02 08:17:03;;;;;;;7.82;4.40;;;21.30;47.20;;;;;;5041822;28;20052;-73
2022/03/02 08:19:30;;;;;;;7.13;4.30;;;21.40;47.30;;;;;;5042315;28;20128;-74
2022/03/02 08:22:05;;;;;;;6.85;4.65;;;21.40;47.30;;;;;;5024909;28;20053;-75
2022/03/02 08:24:31;;;;;;;6.55;4.43;;;21.50;47.50;;;;;;5041928;28;20095;-73
2022/03/02 08:27:00;;;;;;;5.88;4.40;;;21.50;47.50;;;;;;5027824;28;20113;-73
2022/03/02 08:29:27;;;;;;;;;;;21.50;47.60;;;;;;5042281;28;20037;-71
2022/03/02 08:31:56;;;;;;;7.90;4.28;;;21.50;47.70;;;;;;5042575;28;19968;-71
2022/03/02 08:34:22;;;;;;;10.15;4.60;;;21.60;47.60;;;;;;5039557;28;20747;-71
2022/03/02 08:36:49;;;;;;;6.95;5.00;;;21.60;47.70;;;;;;5037425;28;20044;-71
2022/03/02 08:39:15;;;;;;;6.90;4.72;;;21.60;47.70;;;;;;5042087;28;20055;-71
2022/03/02 08:41:41;;;;;;;6.57;4.70;;;21.70;47.80;;;;;;5039498;28;20053;-72
2022/03/02 08:44:08;;;;;;;9.75;4.53;;;21.70;47.80;;;;;;5046082;28;20354;-72
2022/03/02 08:46:34;;;;;;;5.50;4.20;;;21.70;47.80;;;;;;5046376;28;20056;-72
2022/03/02 08:49:00;;;;;;;6.90;4.28;;;21.80;48.00;;;;;;5046480;28;20283;-71
2022/03/02 08:51:27;;;;;;;6.85;5.00;;;21.80;48.10;;;;;;5029994;28;20485;-72
2022/03/02 08:53:59;;;;;;;8.02;4.90;;;21.80;48.10;;;;;;5045753;28;20045;-73
2022/03/02 08:56:25;;;;;;;6.50;4.60;;;21.90;48.20;;;;;;5048377;28;20041;-71
2022/03/02 08:58:53;;;;;;;6.60;4.55;;;21.90;48.20;;;;;;5047487;28;20052;-73
2022/03/02 09:01:19;;;;;;;9.50;4.70;;;21.90;48.20;;;;;;5030232;28;20037;-71
2022/03/02 09:03:51;;;;;;;7.00;5.00;;;21.90;48.20;;;;;;5046489;28;20412;-73
2022/03/02 09:06:19;;;;;;;8.18;4.90;;;22.00;48.20;;;;;;5046017;28;20080;-73
2022/03/02 09:08:45;;;;;;;7.43;4.43;;;22.00;48.20;;;;;;5043076;28;20044;-71
2022/03/02 09:11:11;;;;;;;6.60;4.40;;;22.00;48.20;;;;;;5045414;28;20052;-71
2022/03/02 09:13:38;;;;;;;6.18;4.57;;;22.00;48.10;;;;;;5016458;28;20133;-71
2022/03/02 09:16:05;;;;;;;8.23;5.38;;;22.00;48.10;;;;;;5041437;28;20493;-72
2022/03/02 09:18:30;;;;;;;6.80;4.72;;;22.10;48.20;;;;;;5028238;28;20044;-71
2022/03/02 09:21:01;;;;;;;5.40;4.50;;;22.10;48.10;;;;;;5041063;28;20447;-71
2022/03/02 09:23:33;;;;;;;5.90;4.72;;;22.10;48.10;;;;;;5047618;28;20052;-70
2022/03/02 09:26:04;;;;;;;7.13;4.60;;;22.10;48.10;;;;;;5045634;28;20128;-70
2022/03/02 09:28:32;;;;;;;6.45;4.47;;;22.10;48.00;;;;;;5029407;28;20062;-71
2022/03/02 09:31:02;;;;;;;6.88;4.72;;;22.20;48.10;;;;;;5046423;28;20049;-71
2022/03/02 09:33:29;;;;;;;5.90;4.57;;;22.20;48.00;;;;;;5045581;28;20136;-71
2022/03/02 09:35:56;;;;;;;6.72;4.55;;;22.20;48.00;;;;;;5045196;28;20049;-71
2022/03/02 09:38:23;;;;;;;6.30;4.72;;;22.20;48.00;;;;;;5045188;28;20059;-71
2022/03/02 09:40:53;;;;;;;7.53;4.93;;;22.20;47.90;;;;;;5044986;28;20037;-71
2022/03/02 09:43:24;;;;;;;6.63;4.68;;;22.30;48.00;;;;;;5045212;28;20036;-71
2022/03/02 09:45:52;;;;;;;7.40;4.78;;;22.30;47.90;;;;;;5045618;28;20055;-71
2022/03/02 09:48:31;;;;;;;7.07;4.93;;;22.30;47.90;;;;;;5047678;28;20536;-71
2022/03/02 09:51:05;;;;;;;6.85;5.03;;;22.30;47.90;;;;;;5044244;28;20064;-71
2022/03/02 09:53:32;;;;;;;7.13;5.07;;;22.30;47.90;;;;;;5030743;28;20425;-71
2022/03/02 09:56:04;;;;;;;7.50;5.07;;;22.30;47.80;;;;;;5044350;28;20053;-73
2022/03/02 09:58:31;;;;;;;5.55;4.40;;;22.30;47.80;;;;;;5044816;28;20037;-71
2022/03/02 10:00:58;;;;;;;6.47;5.03;;;22.30;47.80;;;;;;5045811;28;20037;-72
2022/03/02 10:03:30;;;;;;;6.32;4.70;;;22.30;47.80;;;;;;5045271;28;20135;-69
2022/03/02 10:06:03;;;;;;;5.72;4.68;;;22.30;47.90;;;;;;5045143;28;20057;-68
2022/03/02 10:08:32;;;;;;;6.78;5.13;;;22.40;47.80;;;;;;5044238;28;20744;-73
2022/03/02 10:11:03;;;;;;;6.47;4.93;;;22.40;47.60;;;;;;5042569;28;20041;-71
2022/03/02 10:13:29;;;;;;;7.63;5.18;;;22.40;47.20;;;;;;5059191;28;20041;-72
2022/03/02 10:15:57;;;;;;;6.18;4.85;;;22.30;46.90;;;;;;5062438;28;20045;-71
2022/03/02 10:18:25;;;;;;;7.40;5.57;;;22.30;46.80;;;;;;5046053;28;20110;-72
2022/03/02 10:20:58;;;;;;;8.93;5.55;;;22.30;46.70;;;;;;5043531;28;20074;-71
2022/03/02 10:23:50;;;;;;;8.88;5.30;;;22.30;46.60;;;;;;5045150;28;20130;-71
2022/03/02 10:26:24;;;;;;;6.95;5.45;;;22.40;46.70;;;;;;5040480;28;20535;-72
2022/03/02 10:29:00;;;;;;;7.70;5.10;;;22.30;46.50;;;;;;5044337;28;20124;-72
2022/03/02 10:31:39;;;;;;;6.72;5.18;;;22.40;46.50;;;;;;5045782;28;20052;-70
2022/03/02 10:34:21;;;;;;;6.93;5.00;;;22.40;46.50;;;;;;5042755;28;20044;-72
2022/03/02 10:36:51;;;;;;;6.97;5.05;;;22.40;46.50;;;;;;5026759;28;20075;-72
2022/03/02 10:39:38;;;;;;;8.38;5.03;;;22.40;46.50;;;;;;5045806;28;20080;-72
2022/03/02 10:42:05;;;;;;;8.80;4.72;;;22.40;46.50;;;;;;5041191;28;20037;-73
2022/03/02 10:44:52;;;;;;;9.48;4.93;;;22.40;46.50;;;;;;5044039;28;20037;-72
2022/03/02 10:47:21;;;;;;;7.00;5.22;;;22.40;46.50;;;;;;5024377;28;20052;-72
2022/03/02 10:49:50;;;;;;;6.47;4.80;;;22.40;46.50;;;;;;5038056;28;20032;-73
2022/03/02 10:52:20;;;;;;;7.53;4.97;;;22.40;47.30;;;;;;5044614;28;20033;-72
2022/03/02 10:54:48;;;;;;;6.75;4.85;;;22.40;46.50;;;;;;5044968;28;20086;-72
2022/03/02 10:57:18;;;;;;;7.90;5.20;;;22.40;46.50;;;;;;5046925;28;20052;-73
2022/03/02 10:59:44;;;;;;;6.90;4.88;;;22.40;46.50;;;;;;5043684;28;20064;-73
2022/03/02 11:02:11;;;;;;;6.53;4.63;;;22.40;46.50;;;;;;5042578;28;20048;-72
2022/03/02 11:04:45;;;;;;;6.40;5.10;;;22.40;46.50;;;;;;5039164;28;20096;-72
2022/03/02 11:07:14;;;;;;;7.38;5.20;;;22.40;46.50;;;;;;5044373;28;20126;-73
2022/03/02 11:09:41;;;;;;;7.20;4.72;;;22.30;46.50;;;;;;5044115;28;20146;-72
2022/03/02 11:12:09;;;;;;;8.10;5.10;;;22.40;47.40;;;;;;5043729;28;20044;-72
2022/03/02 11:14:34;;;;;;;7.68;4.78;;;22.30;46.50;;;;;;5046489;28;20048;-73
2022/03/02 11:17:14;;;;;;;7.20;4.80;;;22.40;46.60;;;;;;5045320;28;20475;-72
2022/03/02 11:19:44;;;;;;;7.57;5.43;;;22.40;46.50;;;;;;5044285;28;20045;-72
2022/03/02 11:22:13;;;;;;;11.25;5.53;;;22.30;46.50;;;;;;5028256;28;20053;-73
2022/03/02 11:24:39;;;;;;;6.80;4.90;;;22.30;46.50;;;;;;5044583;28;20029;-73
2022/03/02 11:27:05;;;;;;;7.03;4.43;;;22.40;46.50;;;;;;5024578;28;20052;-73
2022/03/02 11:29:32;;;;;;;6.95;4.95;;;22.30;46.60;;;;;;5043027;28;20045;-73
2022/03/02 11:31:57;;;;;;;7.55;5.10;;;22.40;46.60;;;;;;5045625;28;20521;-73
2022/03/02 11:34:26;;;;;;;5.97;4.60;;;22.30;46.60;;;;;;5042262;28;20984;-73
2022/03/02 11:36:59;;;;;;;5.88;4.65;;;22.30;46.60;;;;;;5039545;28;20037;-71
2022/03/02 11:39:27;;;;;;;8.30;5.45;;;22.30;46.50;;;;;;5023367;28;20639;-73
2022/03/02 11:41:55;;;;;;;;;;;22.30;46.50;;;;;;5044729;28;20045;-72
2022/03/02 11:44:39;;;;;;;7.43;5.30;;;22.30;46.20;;;;;;5044256;28;19924;-72
2022/03/02 11:47:07;;;;;;;8.65;5.38;;;22.30;45.80;;;;;;5042415;28;20060;-72
2022/03/02 11:49:53;;;;;;;7.07;5.45;;;22.30;45.70;;;;;;5043952;28;20063;-72
2022/03/02 11:52:24;;;;;;;7.72;5.28;;;22.30;45.00;;;;;;5024361;28;20076;-72
2022/03/02 11:54:59;;;;;;;7.03;5.53;;;22.20;45.00;;;;;;5044404;28;20070;-73
2022/03/02 11:57:27;;;;;;;8.27;5.40;;;22.20;44.80;;;;;;5043771;28;20122;-72
2022/03/02 12:00:17;;;;;;;8.18;5.15;;;22.20;45.50;;;;;;5043804;28;20056;-72
2022/03/02 12:03:08;;;;;;;9.75;5.50;;;22.20;44.30;;;;;;5043888;28;20474;-72
2022/03/02 12:05:34;;;;;;;9.32;5.30;;;22.20;44.20;;;;;;5026183;28;20044;-72
2022/03/02 12:08:09;;;;;;;7.82;5.45;;;22.10;44.20;;;;;;5042997;28;20547;-71
2022/03/02 12:10:37;;;;;;;8.98;4.82;;;22.20;44.00;;;;;;5042765;28;20611;-72
2022/03/02 12:13:04;;;;;;;8.02;5.57;;;22.20;44.00;;;;;;5040970;28;20069;-71
2022/03/02 12:15:51;;;;;;;9.18;6.05;;;22.20;43.90;;;;;;5041183;28;20061;-71
2022/03/02 12:18:18;;;;;;;7.93;5.22;;;22.20;44.00;;;;;;5040693;28;20053;-73
2022/03/02 12:21:01;;;;;;;7.53;5.13;;;22.30;44.00;;;;;;5043358;28;20041;-71
2022/03/02 12:23:38;;;;;;;7.80;5.30;;;22.30;44.00;;;;;;5043655;28;20132;-71
2022/03/02 12:26:08;;;;;;;10.85;5.53;;;22.40;43.90;;;;;;5026612;28;20143;-73
2022/03/02 12:28:33;;;;;;;8.18;5.30;;;22.40;43.90;;;;;;5045936;28;20049;-74
2022/03/02 12:30:59;;;;;;;8.55;5.10;;;22.50;44.20;;;;;;5045112;28;20409;-75
2022/03/02 12:33:25;;;;;;;7.45;5.07;;;22.50;44.60;;;;;;5047024;28;20067;-74
2022/03/02 12:35:51;;;;;;;6.57;5.38;;;22.60;44.70;;;;;;5042603;28;20072;-72
2022/03/02 12:38:18;;;;;;;7.45;5.00;;;22.70;44.80;;;;;;5044201;28;20033;-74
2022/03/02 12:40:45;;;;;;;7.18;5.30;;;23.90;43.30;;;;;;5041662;28;20048;-74
2022/03/02 12:43:17;;;;;;;10.60;5.22;;;24.10;43.30;;;;;;5046155;28;20071;-73
2022/03/02 12:45:48;;;;;;;9.10;4.95;;;24.80;41.80;;;;;;5028843;28;20045;-75
2022/03/02 12:48:16;;;;;;;7.60;5.30;;;25.50;40.70;;;;;;5027743;28;20080;-74
2022/03/02 12:50:44;;;;;;;6.93;5.10;;;26.00;39.90;;;;;;5046130;28;20142;-72
2022/03/02 12:53:10;;;;;;;9.27;5.10;;;26.50;39.20;;;;;;5044338;28;20047;-77